createdAt,value
2023-02-28T00:00:29.348Z,1017.51
2023-02-28T00:01:29.685Z,1017.5
2023-02-28T00:02:29.293Z,1017.51
2023-02-28T00:03:29.311Z,1017.51
2023-02-28T00:04:29.198Z,1017.56
2023-02-28T00:05:29.154Z,1017.56
2023-02-28T00:06:29.143Z,1017.55
2023-02-28T00:07:29.090Z,1017.58
2023-02-28T00:08:29.046Z,1017.55
2023-02-28T00:09:29.002Z,1017.53
2023-02-28T00:10:28.964Z,1017.56
2023-02-28T00:11:29.176Z,1017.55
2023-02-28T00:12:28.901Z,1017.55
2023-02-28T00:13:28.852Z,1017.53
2023-02-28T00:14:28.814Z,1017.58
2023-02-28T00:15:28.775Z,1017.58
2023-02-28T00:16:28.769Z,1017.58
2023-02-28T00:17:28.701Z,1017.59
2023-02-28T00:18:31.145Z,1017.6
2023-02-28T00:19:28.623Z,1017.6
2023-02-28T00:20:28.585Z,1017.59
2023-02-28T00:21:28.873Z,1017.57
2023-02-28T00:22:28.532Z,1017.58
2023-02-28T00:23:28.483Z,1017.58
2023-02-28T00:24:28.431Z,1017.55
2023-02-28T00:25:28.402Z,1017.56
2023-02-28T00:26:28.361Z,1017.58
2023-02-28T00:27:28.322Z,1017.59
2023-02-28T00:28:28.280Z,1017.58
2023-02-28T00:29:28.241Z,1017.57
2023-02-28T00:30:28.254Z,1017.57
2023-02-28T00:31:28.431Z,1017.58
2023-02-28T00:32:28.125Z,1017.54
2023-02-28T00:33:28.087Z,1017.57
2023-02-28T00:34:28.046Z,1017.52
2023-02-28T00:35:28.051Z,1017.56
2023-02-28T00:36:28.075Z,1017.55
2023-02-28T00:37:27.933Z,1017.57
2023-02-28T00:38:27.917Z,1017.58
2023-02-28T00:39:27.856Z,1017.56
2023-02-28T00:40:27.814Z,1017.54
2023-02-28T00:41:28.053Z,1017.53
2023-02-28T00:42:27.739Z,1017.54
2023-02-28T00:43:27.706Z,1017.51
2023-02-28T00:44:27.660Z,1017.52
2023-02-28T00:45:27.624Z,1017.5
2023-02-28T00:46:27.629Z,1017.53
2023-02-28T00:47:27.580Z,1017.57
2023-02-28T00:48:27.507Z,1017.55
2023-02-28T00:49:27.472Z,1017.57
2023-02-28T00:50:27.429Z,1017.56
2023-02-28T00:51:27.785Z,1017.55
2023-02-28T00:52:27.354Z,1017.57
2023-02-28T00:53:27.321Z,1017.52
2023-02-28T00:54:27.304Z,1017.56
2023-02-28T00:55:27.238Z,1017.57
2023-02-28T00:56:27.361Z,1017.58
2023-02-28T00:57:27.160Z,1017.57
2023-02-28T00:58:27.124Z,1017.59
2023-02-28T00:59:27.084Z,1017.6
2023-02-28T01:00:27.044Z,1017.6
2023-02-28T01:01:27.422Z,1017.61
2023-02-28T01:02:26.967Z,1017.63
2023-02-28T01:03:26.930Z,1017.66
2023-02-28T01:04:26.947Z,1017.65
2023-02-28T01:05:26.856Z,1017.65
2023-02-28T01:06:26.814Z,1017.65
2023-02-28T01:07:26.776Z,1017.65
2023-02-28T01:08:26.733Z,1017.64
2023-02-28T01:09:26.699Z,1017.61
2023-02-28T01:10:26.687Z,1017.55
2023-02-28T01:11:26.906Z,1017.58
2023-02-28T01:12:26.584Z,1017.57
2023-02-28T01:13:26.633Z,1017.59
2023-02-28T01:14:26.505Z,1017.58
2023-02-28T01:15:26.501Z,1017.55
2023-02-28T01:16:26.433Z,1017.57
2023-02-28T01:17:26.402Z,1017.56
2023-02-28T01:18:26.365Z,1017.56
2023-02-28T01:19:26.310Z,1017.56
2023-02-28T01:20:26.275Z,1017.54
2023-02-28T01:21:26.316Z,1017.55
2023-02-28T01:22:26.200Z,1017.56
2023-02-28T01:23:26.156Z,1017.51
2023-02-28T01:24:26.119Z,1017.53
2023-02-28T01:25:26.093Z,1017.56
2023-02-28T01:26:26.067Z,1017.51
2023-02-28T01:27:26.003Z,1017.46
2023-02-28T01:28:25.964Z,1017.45
2023-02-28T01:29:25.923Z,1017.47
2023-02-28T01:30:25.887Z,1017.44
2023-02-28T01:31:25.959Z,1017.46
2023-02-28T01:32:25.834Z,1017.46
2023-02-28T01:33:25.769Z,1017.45
2023-02-28T01:34:25.729Z,1017.42
2023-02-28T01:35:25.694Z,1017.41
2023-02-28T01:36:25.656Z,1017.46
2023-02-28T01:37:25.616Z,1017.37
2023-02-28T01:38:25.574Z,1017.4
2023-02-28T01:39:25.548Z,1017.4
2023-02-28T01:40:25.496Z,1017.41
2023-02-28T01:41:25.454Z,1017.4
2023-02-28T01:42:25.454Z,1017.38
2023-02-28T01:43:25.399Z,1017.41
2023-02-28T01:44:25.347Z,1017.38
2023-02-28T01:45:25.298Z,1017.41
2023-02-28T01:46:25.297Z,1017.39
2023-02-28T01:47:25.225Z,1017.41
2023-02-28T01:48:25.185Z,1017.4
2023-02-28T01:49:25.141Z,1017.39
2023-02-28T01:50:25.103Z,1017.42
2023-02-28T01:51:25.067Z,1017.36
2023-02-28T01:52:25.027Z,1017.38
2023-02-28T01:53:24.990Z,1017.39
2023-02-28T01:54:24.955Z,1017.38
2023-02-28T01:55:24.917Z,1017.36
2023-02-28T01:56:24.872Z,1017.4
2023-02-28T01:57:24.838Z,1017.39
2023-02-28T01:58:24.816Z,1017.39
2023-02-28T01:59:24.751Z,1017.4
2023-02-28T02:00:24.715Z,1017.38
2023-02-28T02:01:24.717Z,1017.42
2023-02-28T02:02:24.674Z,1017.33
2023-02-28T02:03:24.598Z,1017.38
2023-02-28T02:04:24.562Z,1017.38
2023-02-28T02:05:24.533Z,1017.39
2023-02-28T02:06:24.479Z,1017.35
2023-02-28T02:07:24.442Z,1017.38
2023-02-28T02:08:24.473Z,1017.36
2023-02-28T02:09:24.366Z,1017.37
2023-02-28T02:10:24.324Z,1017.38
2023-02-28T02:11:24.289Z,1017.35
2023-02-28T02:12:24.244Z,1017.3
2023-02-28T02:13:24.219Z,1017.32
2023-02-28T02:14:24.201Z,1017.31
2023-02-28T02:15:24.129Z,1017.28
2023-02-28T02:16:24.149Z,1017.25
2023-02-28T02:17:24.056Z,1017.26
2023-02-28T02:18:24.018Z,1017.26
2023-02-28T02:19:23.973Z,1017.26
2023-02-28T02:20:23.936Z,1017.27
2023-02-28T02:21:23.894Z,1017.25
2023-02-28T02:22:23.864Z,1017.24
2023-02-28T02:23:23.817Z,1017.23
2023-02-28T02:24:23.778Z,1017.23
2023-02-28T02:25:23.739Z,1017.21
2023-02-28T02:26:23.699Z,1017.21
2023-02-28T02:27:23.661Z,1017.22
2023-02-28T02:28:23.622Z,1017.2
2023-02-28T02:29:23.584Z,1017.21
2023-02-28T02:30:23.567Z,1017.22
2023-02-28T02:31:23.561Z,1017.24
2023-02-28T02:32:23.507Z,1017.25
2023-02-28T02:33:23.431Z,1017.22
2023-02-28T02:34:23.387Z,1017.22
2023-02-28T02:35:23.426Z,1017.23
2023-02-28T02:36:23.312Z,1017.22
2023-02-28T02:37:23.275Z,1017.21
2023-02-28T02:38:23.232Z,1017.22
2023-02-28T02:39:23.191Z,1017.23
2023-02-28T02:40:23.152Z,1017.21
2023-02-28T02:41:23.116Z,1017.24
2023-02-28T02:42:23.077Z,1017.25
2023-02-28T02:43:23.052Z,1017.25
2023-02-28T02:44:22.996Z,1017.24
2023-02-28T02:45:23.053Z,1017.26
2023-02-28T02:46:23.019Z,1017.23
2023-02-28T02:47:22.881Z,1017.23
2023-02-28T02:48:22.838Z,1017.26
2023-02-28T02:49:22.802Z,1017.25
2023-02-28T02:50:22.763Z,1017.25
2023-02-28T02:51:22.724Z,1017.27
2023-02-28T02:52:22.692Z,1017.27
2023-02-28T02:53:22.661Z,1017.25
2023-02-28T02:54:22.609Z,1017.28
2023-02-28T02:55:22.566Z,1017.22
2023-02-28T02:56:22.531Z,1017.26
2023-02-28T02:57:22.489Z,1017.24
2023-02-28T02:58:22.460Z,1017.24
2023-02-28T02:59:22.673Z,1017.24
2023-02-28T03:00:22.374Z,1017.24
2023-02-28T03:01:22.380Z,1017.24
2023-02-28T03:02:22.322Z,1017.26
2023-02-28T03:03:22.255Z,1017.28
2023-02-28T03:04:22.221Z,1017.28
2023-02-28T03:05:22.177Z,1017.25
2023-02-28T03:06:22.140Z,1017.27
2023-02-28T03:07:22.121Z,1017.27
2023-02-28T03:08:22.061Z,1017.21
2023-02-28T03:09:22.019Z,1017.28
2023-02-28T03:10:21.983Z,1017.2
2023-02-28T03:11:21.948Z,1017.24
2023-02-28T03:12:21.909Z,1017.23
2023-02-28T03:13:21.874Z,1017.22
2023-02-28T03:14:21.824Z,1017.27
2023-02-28T03:15:21.785Z,1017.2
2023-02-28T03:16:21.840Z,1017.19
2023-02-28T03:17:21.705Z,1017.18
2023-02-28T03:18:21.703Z,1017.18
2023-02-28T03:19:21.628Z,1017.2
2023-02-28T03:20:21.590Z,1017.16
2023-02-28T03:21:21.550Z,1017.16
2023-02-28T03:22:21.514Z,1017.18
2023-02-28T03:23:21.479Z,1017.16
2023-02-28T03:24:21.439Z,1017.14
2023-02-28T03:25:21.393Z,1017.15
2023-02-28T03:26:21.356Z,1017.13
2023-02-28T03:27:21.315Z,1017.13
2023-02-28T03:28:21.279Z,1017.11
2023-02-28T03:29:21.241Z,1017.13
2023-02-28T03:30:21.199Z,1017.09
2023-02-28T03:31:21.181Z,1017.15
2023-02-28T03:32:21.214Z,1017.18
2023-02-28T03:33:21.080Z,1017.16
2023-02-28T03:34:21.067Z,1017.15
2023-02-28T03:35:21.002Z,1017.18
2023-02-28T03:36:20.987Z,1017.18
2023-02-28T03:37:20.948Z,1017.17
2023-02-28T03:38:20.885Z,1017.14
2023-02-28T03:39:20.844Z,1017.14
2023-02-28T03:40:20.818Z,1017.19
2023-02-28T03:41:20.771Z,1017.2
2023-02-28T03:42:20.728Z,1017.21
2023-02-28T03:43:20.687Z,1017.22
2023-02-28T03:44:20.654Z,1017.18
2023-02-28T03:45:20.613Z,1017.26
2023-02-28T03:46:20.617Z,1017.27
2023-02-28T03:47:20.537Z,1017.28
2023-02-28T03:48:20.492Z,1017.3
2023-02-28T03:49:20.452Z,1017.3
2023-02-28T03:50:20.440Z,1017.31
2023-02-28T03:51:20.392Z,1017.31
2023-02-28T03:52:20.333Z,1017.3
2023-02-28T03:53:20.315Z,1017.3
2023-02-28T03:54:20.263Z,1017.3
2023-02-28T03:55:20.223Z,1017.32
2023-02-28T03:56:20.178Z,1017.33
2023-02-28T03:57:20.135Z,1017.33
2023-02-28T03:58:20.095Z,1017.3
2023-02-28T03:59:20.057Z,1017.29
2023-02-28T04:00:20.021Z,1017.29
2023-02-28T04:01:20.029Z,1017.29
2023-02-28T04:02:19.936Z,1017.29
2023-02-28T04:03:19.905Z,1017.31
2023-02-28T04:04:19.862Z,1017.29
2023-02-28T04:05:19.819Z,1017.32
2023-02-28T04:06:19.803Z,1017.33
2023-02-28T04:07:19.744Z,1017.33
2023-02-28T04:08:19.699Z,1017.3
2023-02-28T04:09:19.661Z,1017.31
2023-02-28T04:10:19.624Z,1017.24
2023-02-28T04:11:19.588Z,1017.3
2023-02-28T04:12:19.539Z,1017.28
2023-02-28T04:13:19.503Z,1017.32
2023-02-28T04:14:19.461Z,1017.3
2023-02-28T04:15:19.424Z,1017.26
2023-02-28T04:16:33.755Z,1017.28
2023-02-28T04:17:19.347Z,1017.3
2023-02-28T04:18:19.307Z,1017.31
2023-02-28T04:19:19.265Z,1017.33
2023-02-28T04:20:19.227Z,1017.32
2023-02-28T04:21:19.186Z,1017.31
2023-02-28T04:22:19.173Z,1017.32
2023-02-28T04:23:19.108Z,1017.32
2023-02-28T04:24:19.071Z,1017.29
2023-02-28T04:25:19.032Z,1017.28
2023-02-28T04:26:18.990Z,1017.29
2023-02-28T04:27:18.949Z,1017.32
2023-02-28T04:28:18.909Z,1017.31
2023-02-28T04:29:18.869Z,1017.33
2023-02-28T04:30:18.829Z,1017.31
2023-02-28T04:31:18.820Z,1017.32
2023-02-28T04:32:18.819Z,1017.38
2023-02-28T04:33:18.712Z,1017.36
2023-02-28T04:34:18.672Z,1017.34
2023-02-28T04:35:18.644Z,1017.35
2023-02-28T04:36:18.595Z,1017.37
2023-02-28T04:37:18.552Z,1017.36
2023-02-28T04:38:18.544Z,1017.36
2023-02-28T04:39:18.475Z,1017.38
2023-02-28T04:40:18.435Z,1017.38
2023-02-28T04:41:18.395Z,1017.4
2023-02-28T04:42:18.357Z,1017.4
2023-02-28T04:43:18.316Z,1017.42
2023-02-28T04:44:18.275Z,1017.38
2023-02-28T04:45:18.238Z,1017.39
2023-02-28T04:46:18.196Z,1017.4
2023-02-28T04:47:18.153Z,1017.42
2023-02-28T04:48:18.116Z,1017.42
2023-02-28T04:49:18.075Z,1017.44
2023-02-28T04:50:18.041Z,1017.44
2023-02-28T04:51:17.993Z,1017.44
2023-02-28T04:52:17.954Z,1017.48
2023-02-28T04:53:17.914Z,1017.46
2023-02-28T04:54:17.901Z,1017.43
2023-02-28T04:55:17.835Z,1017.44
2023-02-28T04:56:17.794Z,1017.39
2023-02-28T04:57:17.756Z,1017.4
2023-02-28T04:58:17.715Z,1017.4
2023-02-28T04:59:17.685Z,1017.41
2023-02-28T05:00:17.653Z,1017.42
2023-02-28T05:01:17.604Z,1017.42
2023-02-28T05:02:17.619Z,1017.44
2023-02-28T05:03:17.514Z,1017.44
2023-02-28T05:04:17.499Z,1017.42
2023-02-28T05:05:17.434Z,1017.42
2023-02-28T05:06:17.398Z,1017.42
2023-02-28T05:07:17.355Z,1017.45
2023-02-28T05:08:17.317Z,1017.46
2023-02-28T05:09:17.276Z,1017.45
2023-02-28T05:10:17.260Z,1017.48
2023-02-28T05:11:17.194Z,1017.49
2023-02-28T05:12:17.157Z,1017.47
2023-02-28T05:13:17.115Z,1017.51
2023-02-28T05:14:17.075Z,1017.46
2023-02-28T05:15:17.035Z,1017.46
2023-02-28T05:16:17.091Z,1017.49
2023-02-28T05:17:16.955Z,1017.5
2023-02-28T05:18:16.965Z,1017.5
2023-02-28T05:19:16.878Z,1017.45
2023-02-28T05:20:16.838Z,1017.51
2023-02-28T05:21:16.800Z,1017.49
2023-02-28T05:22:16.757Z,1017.51
2023-02-28T05:23:16.716Z,1017.5
2023-02-28T05:24:16.676Z,1017.53
2023-02-28T05:25:16.638Z,1017.51
2023-02-28T05:26:16.621Z,1017.53
2023-02-28T05:27:16.555Z,1017.54
2023-02-28T05:28:16.517Z,1017.57
2023-02-28T05:29:16.477Z,1017.59
2023-02-28T05:30:16.441Z,1017.58
2023-02-28T05:31:16.459Z,1017.57
2023-02-28T05:32:16.360Z,1017.56
2023-02-28T05:33:16.323Z,1017.6
2023-02-28T05:34:16.280Z,1017.58
2023-02-28T05:35:16.242Z,1017.57
2023-02-28T05:36:16.212Z,1017.59
2023-02-28T05:37:16.159Z,1017.58
2023-02-28T05:38:16.134Z,1017.57
2023-02-28T05:39:16.080Z,1017.61
2023-02-28T05:40:16.040Z,1017.58
2023-02-28T05:41:16.000Z,1017.61
2023-02-28T05:42:15.982Z,1017.61
2023-02-28T05:43:15.923Z,1017.66
2023-02-28T05:44:15.880Z,1017.63
2023-02-28T05:45:15.961Z,1017.68
2023-02-28T05:46:15.800Z,1017.62
2023-02-28T05:47:15.759Z,1017.7
2023-02-28T05:48:15.718Z,1017.66
2023-02-28T05:49:15.683Z,1017.66
2023-02-28T05:50:15.639Z,1017.65
2023-02-28T05:51:15.615Z,1017.72
2023-02-28T05:52:15.559Z,1017.66
2023-02-28T05:53:15.522Z,1017.69
2023-02-28T05:54:15.483Z,1017.74
2023-02-28T05:55:15.448Z,1017.72
2023-02-28T05:56:15.403Z,1017.71
2023-02-28T05:57:22.825Z,1017.71
2023-02-28T05:58:15.348Z,1017.72
2023-02-28T05:59:15.289Z,1017.71
2023-02-28T06:00:15.244Z,1017.7
2023-02-28T06:01:15.204Z,1017.71
2023-02-28T06:02:15.173Z,1017.7
2023-02-28T06:03:15.158Z,1017.76
2023-02-28T06:04:29.364Z,1017.73
2023-02-28T06:05:15.057Z,1017.74
2023-02-28T06:06:15.011Z,1017.71
2023-02-28T06:07:14.967Z,1017.73
2023-02-28T06:08:14.927Z,1017.7
2023-02-28T06:09:14.892Z,1017.71
2023-02-28T06:10:14.850Z,1017.73
2023-02-28T06:11:14.808Z,1017.71
2023-02-28T06:12:14.768Z,1017.77
2023-02-28T06:13:14.736Z,1017.75
2023-02-28T06:14:14.716Z,1017.76
2023-02-28T06:15:14.648Z,1017.82
2023-02-28T06:16:14.621Z,1017.82
2023-02-28T06:17:14.570Z,1017.83
2023-02-28T06:18:14.533Z,1017.83
2023-02-28T06:19:14.492Z,1017.83
2023-02-28T06:20:14.449Z,1017.88
2023-02-28T06:21:14.414Z,1017.89
2023-02-28T06:22:14.374Z,1017.89
2023-02-28T06:23:14.330Z,1017.87
2023-02-28T06:24:14.318Z,1017.86
2023-02-28T06:25:14.250Z,1017.87
2023-02-28T06:26:14.211Z,1017.88
2023-02-28T06:27:14.169Z,1017.88
2023-02-28T06:28:14.132Z,1017.87
2023-02-28T06:29:14.089Z,1017.88
2023-02-28T06:30:14.081Z,1017.9
2023-02-28T06:31:14.096Z,1017.88
2023-02-28T06:32:14.104Z,1017.88
2023-02-28T06:33:13.983Z,1017.93
2023-02-28T06:34:13.907Z,1017.92
2023-02-28T06:35:13.850Z,1017.96
2023-02-28T06:36:13.813Z,1017.93
2023-02-28T06:37:13.772Z,1017.91
2023-02-28T06:38:13.734Z,1017.94
2023-02-28T06:39:13.692Z,1017.9
2023-02-28T06:40:13.653Z,1017.91
2023-02-28T06:41:13.623Z,1017.94
2023-02-28T06:42:13.583Z,1017.95
2023-02-28T06:43:13.537Z,1017.91
2023-02-28T06:44:13.495Z,1017.95
2023-02-28T06:45:13.461Z,1018
2023-02-28T06:46:13.524Z,1017.98
2023-02-28T06:47:13.382Z,1018
2023-02-28T06:48:13.338Z,1018.03
2023-02-28T06:49:13.306Z,1018.01
2023-02-28T06:50:13.268Z,1018.05
2023-02-28T06:51:13.217Z,1018.02
2023-02-28T06:52:13.182Z,1018.04
2023-02-28T06:53:13.137Z,1018.03
2023-02-28T06:54:13.108Z,1018.05
2023-02-28T06:55:13.060Z,1018.02
2023-02-28T06:56:13.020Z,1018.02
2023-02-28T06:57:12.982Z,1018.06
2023-02-28T06:58:12.943Z,1018.04
2023-02-28T06:59:12.903Z,1018.03
2023-02-28T07:00:12.869Z,1018.04
2023-02-28T07:01:12.844Z,1018.01
2023-02-28T07:02:12.811Z,1018.03
2023-02-28T07:03:12.740Z,1018.08
2023-02-28T07:04:12.709Z,1018.07
2023-02-28T07:05:12.661Z,1018.08
2023-02-28T07:06:12.625Z,1018.07
2023-02-28T07:07:12.578Z,1018.1
2023-02-28T07:08:12.542Z,1018.13
2023-02-28T07:09:12.510Z,1018.05
2023-02-28T07:10:12.458Z,1018.07
2023-02-28T07:11:12.424Z,1018.1
2023-02-28T07:12:12.382Z,1018.06
2023-02-28T07:13:12.343Z,1018.09
2023-02-28T07:14:12.300Z,1018.1
2023-02-28T07:15:12.262Z,1018.09
2023-02-28T07:16:12.271Z,1018.07
2023-02-28T07:17:12.184Z,1018.08
2023-02-28T07:18:12.172Z,1018.11
2023-02-28T07:19:12.106Z,1018.11
2023-02-28T07:20:12.064Z,1018.11
2023-02-28T07:21:12.026Z,1018.12
2023-02-28T07:22:12.990Z,1018.1
2023-02-28T07:23:11.948Z,1018.15
2023-02-28T07:24:11.908Z,1018.14
2023-02-28T07:25:11.867Z,1018.13
2023-02-28T07:26:11.833Z,1018.14
2023-02-28T07:27:11.791Z,1018.16
2023-02-28T07:28:11.749Z,1018.21
2023-02-28T07:29:11.713Z,1018.19
2023-02-28T07:30:11.678Z,1018.27
2023-02-28T07:31:11.678Z,1018.23
2023-02-28T07:32:11.661Z,1018.26
2023-02-28T07:33:11.556Z,1018.32
2023-02-28T07:34:11.537Z,1018.31
2023-02-28T07:35:11.477Z,1018.31
2023-02-28T07:36:11.436Z,1018.33
2023-02-28T07:37:11.401Z,1018.32
2023-02-28T07:38:11.362Z,1018.28
2023-02-28T07:39:11.325Z,1018.27
2023-02-28T07:40:11.283Z,1018.27
2023-02-28T07:41:11.248Z,1018.29
2023-02-28T07:42:11.209Z,1018.27
2023-02-28T07:43:11.172Z,1018.3
2023-02-28T07:44:11.131Z,1018.33
2023-02-28T07:45:11.096Z,1018.27
2023-02-28T07:46:11.079Z,1018.32
2023-02-28T07:47:11.019Z,1018.26
2023-02-28T07:48:11.169Z,1018.25
2023-02-28T07:49:10.949Z,1018.27
2023-02-28T07:50:10.932Z,1018.22
2023-02-28T07:51:10.870Z,1018.26
2023-02-28T07:52:12.255Z,1018.29
2023-02-28T07:53:10.799Z,1018.24
2023-02-28T07:54:10.751Z,1018.28
2023-02-28T07:55:10.721Z,1018.33
2023-02-28T07:56:10.675Z,1018.28
2023-02-28T07:57:10.639Z,1018.3
2023-02-28T07:58:10.624Z,1018.32
2023-02-28T07:59:10.695Z,1018.28
2023-02-28T08:00:10.525Z,1018.33
2023-02-28T08:01:10.495Z,1018.29
2023-02-28T08:02:10.461Z,1018.28
2023-02-28T08:03:10.414Z,1018.32
2023-02-28T08:04:10.376Z,1018.37
2023-02-28T08:05:10.352Z,1018.35
2023-02-28T08:06:10.326Z,1018.37
2023-02-28T08:07:10.262Z,1018.32
2023-02-28T08:08:10.224Z,1018.32
2023-02-28T08:09:10.184Z,1018.31
2023-02-28T08:10:10.202Z,1018.32
2023-02-28T08:11:10.114Z,1018.27
2023-02-28T08:12:10.070Z,1018.27
2023-02-28T08:13:10.052Z,1018.28
2023-02-28T08:14:09.995Z,1018.27
2023-02-28T08:15:09.954Z,1018.25
2023-02-28T08:16:10.002Z,1018.3
2023-02-28T08:17:09.879Z,1018.28
2023-02-28T08:18:09.844Z,1018.28
2023-02-28T08:19:09.805Z,1018.26
2023-02-28T08:20:09.766Z,1018.23
2023-02-28T08:21:09.736Z,1018.27
2023-02-28T08:22:09.714Z,1018.24
2023-02-28T08:23:09.649Z,1018.29
2023-02-28T08:24:09.613Z,1018.26
2023-02-28T08:25:09.576Z,1018.27
2023-02-28T08:26:09.536Z,1018.25
2023-02-28T08:27:09.497Z,1018.25
2023-02-28T08:28:09.461Z,1018.29
2023-02-28T08:29:09.429Z,1018.26
2023-02-28T08:30:09.384Z,1018.34
2023-02-28T08:31:09.387Z,1018.34
2023-02-28T08:32:20.508Z,1018.34
2023-02-28T08:33:09.329Z,1018.35
2023-02-28T08:34:09.233Z,1018.36
2023-02-28T08:35:09.206Z,1018.39
2023-02-28T08:36:09.216Z,1018.37
2023-02-28T08:37:09.117Z,1018.39
2023-02-28T08:38:09.104Z,1018.41
2023-02-28T08:39:09.042Z,1018.43
2023-02-28T08:40:09.024Z,1018.4
2023-02-28T08:41:08.970Z,1018.46
2023-02-28T08:42:08.931Z,1018.41
2023-02-28T08:43:08.894Z,1018.44
2023-02-28T08:44:08.855Z,1018.41
2023-02-28T08:45:08.814Z,1018.41
2023-02-28T08:46:08.894Z,1018.41
2023-02-28T08:47:08.749Z,1018.41
2023-02-28T08:48:08.700Z,1018.44
2023-02-28T08:49:08.661Z,1018.47
2023-02-28T08:50:08.636Z,1018.41
2023-02-28T08:51:08.966Z,1018.43
2023-02-28T08:52:08.549Z,1018.4
2023-02-28T08:53:08.515Z,1018.45
2023-02-28T08:54:08.541Z,1018.41
2023-02-28T08:55:08.529Z,1018.37
2023-02-28T08:56:08.396Z,1018.36
2023-02-28T08:57:08.361Z,1018.36
2023-02-28T08:58:08.328Z,1018.37
2023-02-28T08:59:08.285Z,1018.37
2023-02-28T09:00:08.246Z,1018.33
2023-02-28T09:01:08.324Z,1018.37
2023-02-28T09:02:08.172Z,1018.38
2023-02-28T09:03:08.137Z,1018.37
2023-02-28T09:04:08.110Z,1018.35
2023-02-28T09:05:08.065Z,1018.32
2023-02-28T09:06:08.022Z,1018.4
2023-02-28T09:07:07.993Z,1018.37
2023-02-28T09:08:07.956Z,1018.37
2023-02-28T09:09:07.924Z,1018.4
2023-02-28T09:10:07.908Z,1018.37
2023-02-28T09:11:07.849Z,1018.36
2023-02-28T09:12:07.800Z,1018.34
2023-02-28T09:13:07.770Z,1018.37
2023-02-28T09:14:07.725Z,1018.29
2023-02-28T09:15:07.699Z,1018.31
2023-02-28T09:16:07.661Z,1018.36
2023-02-28T09:17:07.619Z,1018.32
2023-02-28T09:18:07.579Z,1018.35
2023-02-28T09:19:07.543Z,1018.34
2023-02-28T09:20:07.523Z,1018.39
2023-02-28T09:21:07.472Z,1018.3
2023-02-28T09:22:07.431Z,1018.26
2023-02-28T09:23:07.398Z,1018.25
2023-02-28T09:24:07.364Z,1018.21
2023-02-28T09:25:07.330Z,1018.28
2023-02-28T09:26:07.315Z,1018.23
2023-02-28T09:27:07.549Z,1018.25
2023-02-28T09:28:07.212Z,1018.31
2023-02-28T09:29:07.176Z,1018.32
2023-02-28T09:30:07.140Z,1018.32
2023-02-28T09:31:07.138Z,1018.3
2023-02-28T09:32:07.113Z,1018.3
2023-02-28T09:33:07.042Z,1018.28
2023-02-28T09:34:07.031Z,1018.27
2023-02-28T09:35:06.964Z,1018.27
2023-02-28T09:36:06.942Z,1018.22
2023-02-28T09:37:06.903Z,1018.18
2023-02-28T09:38:06.848Z,1018.23
2023-02-28T09:39:06.817Z,1018.24
2023-02-28T09:40:06.778Z,1018.23
2023-02-28T09:41:06.743Z,1018.24
2023-02-28T09:42:06.730Z,1018.23
2023-02-28T09:43:06.673Z,1018.28
2023-02-28T09:44:06.634Z,1018.29
2023-02-28T09:45:06.592Z,1018.3
2023-02-28T09:46:06.621Z,1018.29
2023-02-28T09:47:06.525Z,1018.24
2023-02-28T09:48:06.486Z,1018.26
2023-02-28T09:49:06.457Z,1018.25
2023-02-28T09:50:06.410Z,1018.2
2023-02-28T09:51:06.384Z,1018.29
2023-02-28T09:52:06.344Z,1018.26
2023-02-28T09:53:06.304Z,1018.25
2023-02-28T09:54:06.269Z,1018.25
2023-02-28T09:55:07.212Z,1018.3
2023-02-28T09:56:06.197Z,1018.29
2023-02-28T09:57:06.217Z,1018.3
2023-02-28T09:58:06.156Z,1018.28
2023-02-28T09:59:06.094Z,1018.31
2023-02-28T10:00:06.052Z,1018.32
2023-02-28T10:01:06.046Z,1018.34
2023-02-28T10:02:05.983Z,1018.32
2023-02-28T10:03:05.948Z,1018.34
2023-02-28T10:04:05.909Z,1018.29
2023-02-28T10:05:05.978Z,1018.28
2023-02-28T10:06:05.838Z,1018.34
2023-02-28T10:07:05.805Z,1018.28
2023-02-28T10:08:05.769Z,1018.36
2023-02-28T10:09:05.730Z,1018.33
2023-02-28T10:10:05.706Z,1018.32
2023-02-28T10:11:05.659Z,1018.31
2023-02-28T10:12:05.629Z,1018.31
2023-02-28T10:13:05.608Z,1018.26
2023-02-28T10:14:05.583Z,1018.27
2023-02-28T10:15:05.516Z,1018.29
2023-02-28T10:16:05.523Z,1018.25
2023-02-28T10:17:05.444Z,1018.24
2023-02-28T10:18:09.080Z,1018.18
2023-02-28T10:19:05.374Z,1018.18
2023-02-28T10:20:05.404Z,1018.17
2023-02-28T10:21:05.299Z,1018.13
2023-02-28T10:22:05.366Z,1018.16
2023-02-28T10:23:05.229Z,1018.19
2023-02-28T10:24:05.195Z,1018.22
2023-02-28T10:25:05.971Z,1018.17
2023-02-28T10:26:05.126Z,1018.19
2023-02-28T10:27:05.091Z,1018.13
2023-02-28T10:28:05.055Z,1018.12
2023-02-28T10:29:05.026Z,1018.15
2023-02-28T10:30:05.013Z,1018.1
2023-02-28T10:31:05.000Z,1018.09
2023-02-28T10:32:04.993Z,1018.04
2023-02-28T10:33:04.941Z,1017.97
2023-02-28T10:34:04.843Z,1018.1
2023-02-28T10:35:04.810Z,1018.06
2023-02-28T10:36:04.821Z,1017.97
2023-02-28T10:37:04.739Z,1018.03
2023-02-28T10:38:04.701Z,1018.02
2023-02-28T10:39:04.669Z,1018.02
2023-02-28T10:40:04.649Z,1018.03
2023-02-28T10:41:04.605Z,1018.08
2023-02-28T10:42:04.562Z,1018.03
2023-02-28T10:43:04.546Z,1018.02
2023-02-28T10:44:04.494Z,1018.04
2023-02-28T10:45:04.459Z,1018.02
2023-02-28T10:46:04.526Z,1018
2023-02-28T10:47:04.388Z,1017.99
2023-02-28T10:48:04.355Z,1017.97
2023-02-28T10:49:04.318Z,1018.01
2023-02-28T10:50:04.280Z,1018
2023-02-28T10:51:04.257Z,1017.95
2023-02-28T10:52:04.215Z,1017.94
2023-02-28T10:53:05.143Z,1017.9
2023-02-28T10:54:04.145Z,1017.88
2023-02-28T10:55:04.168Z,1017.92
2023-02-28T10:56:04.075Z,1017.85
2023-02-28T10:57:04.040Z,1017.9
2023-02-28T10:58:04.003Z,1017.88
2023-02-28T10:59:03.988Z,1017.93
2023-02-28T11:00:03.946Z,1017.82
2023-02-28T11:01:03.901Z,1017.88
2023-02-28T11:02:04.002Z,1017.99
2023-02-28T11:03:03.828Z,1017.91
2023-02-28T11:04:03.803Z,1017.92
2023-02-28T11:05:03.879Z,1017.93
2023-02-28T11:06:03.723Z,1017.96
2023-02-28T11:07:03.691Z,1017.92
2023-02-28T11:08:03.652Z,1017.91
2023-02-28T11:09:03.622Z,1017.97
2023-02-28T11:10:03.582Z,1017.99
2023-02-28T11:11:03.548Z,1017.93
2023-02-28T11:12:03.517Z,1017.91
2023-02-28T11:13:03.481Z,1017.95
2023-02-28T11:14:03.443Z,1017.95
2023-02-28T11:15:03.409Z,1017.98
2023-02-28T11:16:03.471Z,1017.93
2023-02-28T11:17:03.345Z,1017.86
2023-02-28T11:18:03.339Z,1017.92
2023-02-28T11:19:03.273Z,1018.02
2023-02-28T11:20:03.233Z,1017.88
2023-02-28T11:21:03.202Z,1017.9
2023-02-28T11:22:03.167Z,1017.81
2023-02-28T11:23:03.134Z,1017.84
2023-02-28T11:24:03.100Z,1017.84
2023-02-28T11:25:03.072Z,1017.9
2023-02-28T11:26:03.043Z,1017.88
2023-02-28T11:27:02.995Z,1017.93
2023-02-28T11:28:02.976Z,1017.91
2023-02-28T11:29:02.923Z,1017.89
2023-02-28T11:30:02.898Z,1017.96
2023-02-28T11:31:02.876Z,1017.88
2023-02-28T11:32:02.864Z,1017.85
2023-02-28T11:33:02.871Z,1017.86
2023-02-28T11:34:02.878Z,1017.82
2023-02-28T11:35:02.724Z,1017.85
2023-02-28T11:36:02.691Z,1017.93
2023-02-28T11:37:02.657Z,1017.92
2023-02-28T11:38:02.618Z,1017.88
2023-02-28T11:39:02.662Z,1017.86
2023-02-28T11:40:02.559Z,1017.82
2023-02-28T11:41:02.511Z,1017.87
2023-02-28T11:42:02.476Z,1017.78
2023-02-28T11:43:02.445Z,1017.9
2023-02-28T11:44:02.446Z,1017.83
2023-02-28T11:45:02.386Z,1017.8
2023-02-28T11:46:02.340Z,1017.76
2023-02-28T11:47:02.303Z,1017.78
2023-02-28T11:48:02.278Z,1017.77
2023-02-28T11:49:02.237Z,1017.78
2023-02-28T11:50:02.225Z,1017.79
2023-02-28T11:51:02.165Z,1017.77
2023-02-28T11:52:02.135Z,1017.87
2023-02-28T11:53:02.218Z,1017.71
2023-02-28T11:54:02.067Z,1017.77
2023-02-28T11:55:02.033Z,1017.72
2023-02-28T11:56:02.002Z,1017.68
2023-02-28T11:57:01.973Z,1017.68
2023-02-28T11:58:01.938Z,1017.65
2023-02-28T11:59:01.898Z,1017.73
2023-02-28T12:00:01.867Z,1017.67
2023-02-28T12:01:01.830Z,1017.67
2023-02-28T12:02:01.835Z,1017.61
2023-02-28T12:03:01.806Z,1017.63
2023-02-28T12:04:01.733Z,1017.59
2023-02-28T12:05:02.899Z,1017.55
2023-02-28T12:06:01.688Z,1017.66
2023-02-28T12:07:01.631Z,1017.67
2023-02-28T12:08:01.598Z,1017.66